Time;durP1;ratioP1;P1;durP2;ratioP2;P2;SDS_P1;SDS_P2;PMS_P1;PMS_P2;Temp;Humidity;BMP_temperature;BMP_pressure;BME280_temperature;BME280_humidity;BME280_pressure;Samples;Min_cycle;Max_cycle;Signal;HPM_P1;HPM_P2
2021/06/23 00:01:33;;;;;;;74.65;70.88;;;;;;;;;;5112871;27;20389;-86
2021/06/23 00:04:00;;;;;;;81.90;78.03;;;;;;;;;;5112762;27;20388;-86
2021/06/23 00:06:26;;;;;;;101.60;97.05;;;;;;;;;;5112750;27;20402;-85
2021/06/23 00:08:52;;;;;;;100.35;95.68;;;;;;;;;;5113477;27;20381;-86
2021/06/23 00:11:18;;;;;;;113.55;108.18;;;;;;;;;;5112498;27;20404;-87
2021/06/23 00:13:44;;;;;;;124.75;118.60;;;;;;;;;;5113031;27;20388;-86
2021/06/23 00:16:11;;;;;;;119.65;113.95;;;;;;;;;;5131378;27;20452;-85
2021/06/23 00:18:37;;;;;;;107.63;102.53;;;;;;;;;;5113106;27;20393;-87
2021/06/23 00:21:04;;;;;;;89.88;85.57;;;;;;;;;;5130996;27;20365;-86
2021/06/23 00:23:30;;;;;;;109.78;104.75;;;;;;;;;;5113263;27;20376;-86
2021/06/23 00:25:56;;;;;;;107.55;102.57;;;;;;;;;;5113277;27;20460;-86
2021/06/23 00:28:23;;;;;;;107.68;102.88;;;;;;;;;;5113326;27;20377;-85
2021/06/23 00:30:48;;;;;;;101.03;96.30;;;;;;;;;;5131436;27;20353;-86
2021/06/23 00:33:19;;;;;;;94.75;90.25;;;;;;;;;;5112789;27;20369;-86
2021/06/23 00:35:46;;;;;;;86.45;82.40;;;;;;;;;;5131529;27;20377;-86
2021/06/23 00:38:12;;;;;;;78.50;74.70;;;;;;;;;;5113112;27;20365;-86
2021/06/23 00:40:38;;;;;;;78.90;75.35;;;;;;;;;;5113021;27;20373;-85
2021/06/23 00:43:04;;;;;;;77.70;73.90;;;;;;;;;;5112756;27;20821;-85
2021/06/23 00:45:31;;;;;;;67.18;63.75;;;;;;;;;;5112955;27;20751;-86
2021/06/23 00:47:57;;;;;;;68.93;65.53;;;;;;;;;;5112485;27;20886;-85
2021/06/23 00:50:23;;;;;;;64.35;61.15;;;;;;;;;;5112774;27;20365;-85
2021/06/23 00:52:51;;;;;;;62.10;58.70;;;;;;;;;;5112537;27;20476;-85
2021/06/23 00:55:21;;;;;;;58.30;55.42;;;;;;;;;;5112579;27;20813;-84
2021/06/23 00:57:49;;;;;;;67.93;64.57;;;;;;;;;;5112668;27;20405;-84
2021/06/23 01:00:16;;;;;;;61.53;58.58;;;;;;;;;;5131027;27;20422;-86
2021/06/23 01:02:42;;;;;;;58.00;54.97;;;;;;;;;;5112572;27;20365;-85
2021/06/23 01:05:09;;;;;;;59.47;56.50;;;;;;;;;;5112309;27;20408;-86
2021/06/23 01:07:35;;;;;;;64.97;61.78;;;;;;;;;;5130757;27;20353;-84
2021/06/23 01:10:01;;;;;;;65.55;62.40;;;;;;;;;;5130709;27;20383;-85
2021/06/23 01:12:27;;;;;;;64.18;60.85;;;;;;;;;;5112133;27;20412;-85
2021/06/23 01:14:54;;;;;;;74.10;70.30;;;;;;;;;;5111808;28;20377;-85
2021/06/23 01:17:21;;;;;;;71.85;68.30;;;;;;;;;;5130502;27;20695;-84
2021/06/23 01:19:47;;;;;;;105.65;100.25;;;;;;;;;;5130776;27;20464;-85
2021/06/23 01:22:15;;;;;;;103.05;97.65;;;;;;;;;;5129337;27;20421;-84
2021/06/23 01:24:41;;;;;;;95.15;90.35;;;;;;;;;;5112158;27;20373;-85
2021/06/23 01:27:08;;;;;;;75.65;71.95;;;;;;;;;;5112213;27;20862;-84
2021/06/23 01:29:34;;;;;;;76.07;72.28;;;;;;;;;;5111925;27;20385;-85
2021/06/23 01:32:00;;;;;;;84.10;79.78;;;;;;;;;;5111865;27;20408;-84
2021/06/23 01:34:26;;;;;;;58.63;55.72;;;;;;;;;;5111910;27;20365;-85
2021/06/23 01:36:52;;;;;;;58.08;55.33;;;;;;;;;;5130427;27;20357;-85
2021/06/23 01:39:18;;;;;;;58.63;55.72;;;;;;;;;;5130033;27;20880;-85
2021/06/23 01:41:44;;;;;;;49.35;46.92;;;;;;;;;;5111680;27;20369;-84
2021/06/23 01:44:10;;;;;;;73.38;69.97;;;;;;;;;;5111795;27;20365;-84
2021/06/23 01:46:36;;;;;;;77.93;74.15;;;;;;;;;;5130306;27;20354;-84
2021/06/23 01:49:03;;;;;;;71.43;67.82;;;;;;;;;;5111777;27;20942;-84
2021/06/23 01:51:28;;;;;;;41.85;39.55;;;;;;;;;;5111798;27;20446;-84
2021/06/23 01:53:54;;;;;;;35.15;33.38;;;;;;;;;;5111638;27;20408;-84
2021/06/23 01:56:20;;;;;;;28.58;27.05;;;;;;;;;;5111519;27;20377;-84
2021/06/23 01:58:47;;;;;;;32.85;31.00;;;;;;;;;;5129800;27;20713;-84
2021/06/23 02:01:16;;;;;;;32.58;30.88;;;;;;;;;;5111339;28;20378;-84
2021/06/23 02:03:48;;;;;;;31.38;29.67;;;;;;;;;;5129721;27;20357;-84
2021/06/23 02:06:23;;;;;;;20.80;19.40;;;;;;;;;;5111376;27;20423;-85
2021/06/23 02:09:02;;;;;;;10.77;9.75;;;;;;;;;;5129780;27;20361;-84
2021/06/23 02:11:46;;;;;;;9.10;7.88;;;;;;;;;;5111214;27;20483;-84
2021/06/23 02:14:34;;;;;;;11.98;10.88;;;;;;;;;;5111263;28;20460;-84
2021/06/23 02:17:02;;;;;;;26.88;10.55;;;;;;;;;;5129679;27;20385;-84
2021/06/23 02:19:29;;;;;;;16.08;8.52;;;;;;;;;;5129707;27;20777;-83
2021/06/23 02:21:55;;;;;;;12.25;8.68;;;;;;;;;;5111167;27;20375;-84
2021/06/23 02:24:21;;;;;;;13.65;8.05;;;;;;;;;;5111447;27;20365;-83
2021/06/23 02:26:47;;;;;;;13.15;8.20;;;;;;;;;;5111034;27;20391;-84
2021/06/23 02:29:14;;;;;;;11.23;8.23;;;;;;;;;;5111330;27;20923;-84
2021/06/23 02:31:40;;;;;;;12.50;7.88;;;;;;;;;;5110749;28;20393;-84
2021/06/23 02:34:07;;;;;;;13.82;9.90;;;;;;;;;;5111186;28;20378;-85
2021/06/23 02:36:33;;;;;;;11.00;8.07;;;;;;;;;;5111371;28;20794;-84
2021/06/23 02:38:59;;;;;;;12.77;8.60;;;;;;;;;;5110946;28;20395;-84
2021/06/23 02:41:25;;;;;;;11.90;9.02;;;;;;;;;;5130063;28;20364;-84
2021/06/23 02:43:52;;;;;;;12.52;8.07;;;;;;;;;;5129491;27;20503;-84
2021/06/23 02:46:18;;;;;;;11.18;8.05;;;;;;;;;;5111098;28;20396;-84
2021/06/23 02:48:44;;;;;;;10.05;8.13;;;;;;;;;;5129460;27;20376;-84
2021/06/23 02:51:24;;;;;;;12.75;7.90;;;;;;;;;;5111049;28;20400;-85
2021/06/23 02:53:51;;;;;;;8.95;8.00;;;;;;;;;;5110942;28;20369;-84
2021/06/23 02:56:18;;;;;;;11.93;8.70;;;;;;;;;;5110795;28;20402;-84
2021/06/23 02:58:44;;;;;;;12.57;8.90;;;;;;;;;;5110630;28;20361;-84
2021/06/23 03:01:11;;;;;;;16.50;8.75;;;;;;;;;;5110778;28;20361;-84
2021/06/23 03:03:38;;;;;;;13.75;9.18;;;;;;;;;;5110979;28;20377;-84
2021/06/23 03:06:04;;;;;;;10.70;8.10;;;;;;;;;;5129114;27;20357;-84
2021/06/23 03:08:30;;;;;;;12.50;7.88;;;;;;;;;;5110753;28;20365;-84
2021/06/23 03:10:57;;;;;;;9.18;8.23;;;;;;;;;;5128729;28;20377;-84
2021/06/23 03:13:23;;;;;;;10.07;8.27;;;;;;;;;;5110128;27;20972;-83
2021/06/23 03:15:49;;;;;;;11.35;8.85;;;;;;;;;;5128981;28;20450;-84
2021/06/23 03:18:15;;;;;;;11.43;9.27;;;;;;;;;;5128519;27;20357;-85
2021/06/23 03:20:41;;;;;;;11.02;9.13;;;;;;;;;;5128664;27;20365;-84
2021/06/23 03:23:07;;;;;;;12.63;9.32;;;;;;;;;;5129292;28;20464;-84
2021/06/23 03:25:33;;;;;;;11.27;9.25;;;;;;;;;;5110505;28;20898;-85
2021/06/23 03:27:59;;;;;;;10.77;9.35;;;;;;;;;;5110696;27;20991;-84
2021/06/23 03:30:27;;;;;;;11.15;9.30;;;;;;;;;;5110829;28;20925;-84
2021/06/23 03:32:53;;;;;;;12.82;9.73;;;;;;;;;;5128991;27;20441;-84
2021/06/23 03:35:20;;;;;;;10.23;9.17;;;;;;;;;;5128943;27;20357;-84
2021/06/23 03:37:47;;;;;;;10.60;9.50;;;;;;;;;;5110628;27;20365;-84
2021/06/23 03:40:13;;;;;;;12.10;9.70;;;;;;;;;;5132106;27;20925;-83
2021/06/23 03:42:39;;;;;;;11.33;10.10;;;;;;;;;;5114398;27;20422;-84
2021/06/23 03:45:06;;;;;;;11.07;9.27;;;;;;;;;;5114362;27;20365;-84
2021/06/23 03:47:32;;;;;;;11.10;9.68;;;;;;;;;;5114062;27;20994;-84
2021/06/23 03:49:58;;;;;;;10.68;9.68;;;;;;;;;;5113877;27;20411;-84
2021/06/23 03:52:24;;;;;;;12.30;9.98;;;;;;;;;;5113785;27;20500;-84
2021/06/23 03:54:50;;;;;;;12.87;10.27;;;;;;;;;;5113924;27;20870;-84
2021/06/23 03:57:16;;;;;;;10.40;8.80;;;;;;;;;;5113773;27;20369;-84
2021/06/23 03:59:42;;;;;;;9.67;8.53;;;;;;;;;;5113887;27;20365;-84
2021/06/23 04:02:08;;;;;;;10.13;9.03;;;;;;;;;;5114241;27;20894;-84
2021/06/23 04:04:34;;;;;;;11.93;9.93;;;;;;;;;;5113958;27;20483;-84
2021/06/23 04:07:00;;;;;;;10.70;9.60;;;;;;;;;;5114424;27;20438;-83
2021/06/23 04:09:26;;;;;;;12.65;10.30;;;;;;;;;;5133195;27;20361;-85
2021/06/23 04:11:52;;;;;;;13.13;10.95;;;;;;;;;;5114618;27;20776;-84
2021/06/23 04:14:23;;;;;;;13.40;11.55;;;;;;;;;;5115245;27;20377;-84
2021/06/23 04:16:49;;;;;;;13.70;10.00;;;;;;;;;;5114473;27;20376;-84
2021/06/23 04:19:15;;;;;;;11.98;10.40;;;;;;;;;;5113750;27;20773;-85
2021/06/23 04:21:41;;;;;;;14.27;10.40;;;;;;;;;;5113694;27;20430;-83
2021/06/23 04:24:07;;;;;;;15.32;10.15;;;;;;;;;;5132401;27;20862;-85
2021/06/23 04:26:33;;;;;;;11.73;10.10;;;;;;;;;;5114913;27;20361;-86
2021/06/23 04:28:59;;;;;;;14.90;10.15;;;;;;;;;;5114460;27;20626;-85
2021/06/23 04:31:25;;;;;;;12.43;8.88;;;;;;;;;;5114213;27;20491;-86
2021/06/23 04:33:51;;;;;;;12.95;8.75;;;;;;;;;;5114457;27;20392;-85
2021/06/23 04:36:17;;;;;;;11.50;8.60;;;;;;;;;;5113565;27;20396;-84
2021/06/23 04:38:43;;;;;;;11.82;9.52;;;;;;;;;;5131307;27;20793;-85
2021/06/23 04:41:09;;;;;;;20.98;19.30;;;;;;;;;;5113471;27;20373;-84
2021/06/23 04:43:35;;;;;;;40.35;38.00;;;;;;;;;;5113138;27;20725;-85
2021/06/23 04:46:01;;;;;;;19.08;17.52;;;;;;;;;;5113582;27;20361;-84
2021/06/23 04:48:27;;;;;;;20.02;18.42;;;;;;;;;;5113594;27;20399;-86
2021/06/23 04:50:54;;;;;;;18.95;17.48;;;;;;;;;;5112636;27;20757;-86
2021/06/23 04:53:20;;;;;;;29.02;26.65;;;;;;;;;;5131425;27;20365;-86
2021/06/23 04:55:46;;;;;;;88.22;83.80;;;;;;;;;;5112857;27;20377;-85
2021/06/23 04:58:12;;;;;;;137.43;131.18;;;;;;;;;;5112561;27;20388;-88
2021/06/23 05:00:38;;;;;;;57.30;54.00;;;;;;;;;;5112728;27;20421;-86
2021/06/23 05:03:04;;;;;;;71.10;67.17;;;;;;;;;;5113258;27;20854;-84
2021/06/23 05:05:30;;;;;;;56.25;53.15;;;;;;;;;;5131622;27;20365;-86
2021/06/23 05:07:56;;;;;;;65.88;62.08;;;;;;;;;;5131554;27;21025;-88
2021/06/23 05:10:22;;;;;;;53.65;50.65;;;;;;;;;;5112878;27;20368;-83
2021/06/23 05:12:48;;;;;;;70.05;66.35;;;;;;;;;;5131112;27;20492;-86
2021/06/23 05:15:14;;;;;;;56.83;53.60;;;;;;;;;;5112742;27;20933;-82
2021/06/23 05:17:40;;;;;;;46.22;43.38;;;;;;;;;;5112406;27;20366;-87
2021/06/23 05:20:06;;;;;;;40.03;37.28;;;;;;;;;;5112254;27;20727;-88
2021/06/23 05:22:32;;;;;;;29.50;26.95;;;;;;;;;;5130934;27;20357;-88
2021/06/23 05:24:59;;;;;;;30.60;28.50;;;;;;;;;;5112802;27;20465;-89
2021/06/23 05:27:25;;;;;;;42.60;40.10;;;;;;;;;;5112735;27;20448;-88
2021/06/23 05:29:51;;;;;;;47.20;44.30;;;;;;;;;;5112115;27;20365;-86
2021/06/23 05:32:17;;;;;;;44.97;42.45;;;;;;;;;;5130266;27;20396;-85
2021/06/23 05:34:46;;;;;;;34.13;31.98;;;;;;;;;;5112745;27;20484;-87
2021/06/23 05:37:12;;;;;;;22.47;20.77;;;;;;;;;;5112487;27;20369;-89
2021/06/23 05:39:38;;;;;;;30.53;28.50;;;;;;;;;;5129640;27;20379;-86
2021/06/23 05:42:04;;;;;;;35.45;33.25;;;;;;;;;;5111844;27;20714;-87
2021/06/23 05:44:30;;;;;;;21.13;19.47;;;;;;;;;;5111559;27;20373;-88
2021/06/23 05:46:56;;;;;;;14.27;12.98;;;;;;;;;;5111846;27;20380;-87
2021/06/23 05:49:22;;;;;;;12.13;9.70;;;;;;;;;;5111351;27;20369;-87
2021/06/23 05:51:48;;;;;;;13.10;11.77;;;;;;;;;;5129642;27;20874;-88
2021/06/23 05:54:14;;;;;;;20.30;18.63;;;;;;;;;;5111758;27;20373;-88
2021/06/23 05:56:40;;;;;;;17.73;16.00;;;;;;;;;;5111476;27;20369;-88
2021/06/23 05:59:06;;;;;;;18.13;16.63;;;;;;;;;;5111386;27;20373;-86
2021/06/23 06:01:32;;;;;;;23.02;21.42;;;;;;;;;;5110828;27;20434;-89
2021/06/23 06:03:58;;;;;;;26.10;24.05;;;;;;;;;;5111581;27;20369;-86
2021/06/23 06:06:24;;;;;;;14.13;12.15;;;;;;;;;;5111448;27;20902;-87
2021/06/23 06:08:50;;;;;;;9.05;7.82;;;;;;;;;;5111270;27;20454;-85
2021/06/23 06:11:18;;;;;;;29.40;27.38;;;;;;;;;;5111541;27;20490;-87
2021/06/23 06:13:44;;;;;;;39.40;36.90;;;;;;;;;;5094742;27;20377;-88
2021/06/23 06:16:10;;;;;;;16.75;14.32;;;;;;;;;;5111530;27;20370;-86
2021/06/23 06:18:39;;;;;;;28.02;26.20;;;;;;;;;;5111846;27;20903;-90
2021/06/23 06:21:05;;;;;;;14.68;12.65;;;;;;;;;;5112580;27;21060;-90
2021/06/23 06:23:31;;;;;;;12.50;10.10;;;;;;;;;;5112395;28;20487;-88
2021/06/23 06:25:57;;;;;;;13.60;8.10;;;;;;;;;;5094791;28;20735;-86
2021/06/23 06:28:23;;;;;;;11.50;9.55;;;;;;;;;;5111476;27;20373;-87
2021/06/23 06:30:52;;;;;;;11.15;5.78;;;;;;;;;;5111135;28;20889;-86
2021/06/23 06:33:19;;;;;;;11.50;5.78;;;;;;;;;;5110402;27;20393;-87
2021/06/23 06:35:45;;;;;;;10.68;8.85;;;;;;;;;;5111713;28;20897;-86
2021/06/23 06:38:12;;;;;;;11.23;6.50;;;;;;;;;;5111483;28;20777;-84
2021/06/23 06:40:38;;;;;;;10.43;7.13;;;;;;;;;;5110985;28;20388;-86
2021/06/23 06:43:05;;;;;;;12.13;9.18;;;;;;;;;;5112417;28;20396;-90
2021/06/23 06:45:31;;;;;;;17.13;15.60;;;;;;;;;;5112129;28;20480;-87
2021/06/23 06:47:57;;;;;;;19.67;17.90;;;;;;;;;;5112028;27;20475;-87
2021/06/23 06:50:23;;;;;;;22.63;20.45;;;;;;;;;;5111874;28;20925;-87
2021/06/23 06:52:49;;;;;;;37.90;35.38;;;;;;;;;;5111242;28;20397;-86
2021/06/23 06:55:20;;;;;;;34.00;31.80;;;;;;;;;;5129598;27;20372;-87
2021/06/23 06:57:51;;;;;;;12.45;11.23;;;;;;;;;;5109380;28;20385;-88
2021/06/23 07:00:18;;;;;;;25.45;23.58;;;;;;;;;;5129367;27;20511;-89
2021/06/23 07:02:44;;;;;;;20.80;19.48;;;;;;;;;;5111236;28;20368;-86
2021/06/23 07:05:10;;;;;;;29.23;27.05;;;;;;;;;;5111375;28;20365;-86
2021/06/23 07:07:36;;;;;;;17.70;15.95;;;;;;;;;;5111138;28;20388;-88
2021/06/23 07:10:03;;;;;;;11.32;9.85;;;;;;;;;;5110369;28;20718;-86
2021/06/23 07:12:29;;;;;;;13.25;10.13;;;;;;;;;;5109800;27;20401;-86
2021/06/23 07:14:54;;;;;;;22.92;21.10;;;;;;;;;;5131415;27;20381;-86
2021/06/23 07:17:21;;;;;;;23.27;21.35;;;;;;;;;;5128809;27;20369;-86
2021/06/23 07:19:47;;;;;;;12.75;10.20;;;;;;;;;;5115142;27;20456;-87
2021/06/23 07:22:13;;;;;;;19.95;13.77;;;;;;;;;;5114593;27;20810;-84
2021/06/23 07:24:39;;;;;;;23.73;21.83;;;;;;;;;;5112245;27;20466;-89
2021/06/23 07:27:05;;;;;;;16.85;14.55;;;;;;;;;;5132867;27;20395;-86
2021/06/23 07:29:31;;;;;;;25.02;23.15;;;;;;;;;;5130886;27;20395;-88
2021/06/23 07:37:03;;;;;;;19.48;17.98;;;;;;;;;;5150740;27;20725;-87
2021/06/23 07:39:30;;;;;;;13.48;9.77;;;;;;;;;;5131869;27;20474;-88
2021/06/23 07:41:56;;;;;;;15.57;10.60;;;;;;;;;;5131130;27;20383;-85
2021/06/23 07:46:57;;;;;;;14.30;11.60;;;;;;;;;;5151580;27;20833;-87
2021/06/23 07:49:26;;;;;;;16.87;15.07;;;;;;;;;;5152967;27;20380;-87
2021/06/23 07:55:01;;;;;;;12.68;5.03;;;;;;;;;;5152703;27;20386;-87
2021/06/23 08:08:51;;;;;;;10.95;4.18;;;;;;;;;;5152929;27;20386;-87
2021/06/23 08:11:21;;;;;;;11.05;4.75;;;;;;;;;;5152984;27;20406;-88
2021/06/23 08:13:48;;;;;;;11.90;4.15;;;;;;;;;;5134813;27;21116;-87
2021/06/23 08:16:15;;;;;;;13.45;4.63;;;;;;;;;;5116771;27;20707;-86
2021/06/23 08:18:41;;;;;;;13.70;4.80;;;;;;;;;;5114191;27;20378;-85
2021/06/23 08:21:07;;;;;;;11.03;4.10;;;;;;;;;;5113563;27;20426;-84
2021/06/23 08:23:33;;;;;;;15.43;5.17;;;;;;;;;;5113110;27;20456;-87
2021/06/23 08:25:59;;;;;;;12.95;4.50;;;;;;;;;;5113194;27;20365;-85
2021/06/23 08:28:25;;;;;;;10.13;3.90;;;;;;;;;;5112824;27;20362;-87
2021/06/23 08:30:52;;;;;;;12.70;5.00;;;;;;;;;;5113681;27;20369;-87
2021/06/23 08:33:18;;;;;;;10.88;4.35;;;;;;;;;;5113024;27;20866;-83
2021/06/23 08:35:45;;;;;;;13.05;4.30;;;;;;;;;;5113892;27;20364;-88
2021/06/23 08:38:14;;;;;;;10.88;3.95;;;;;;;;;;5112844;27;20365;-89
2021/06/23 08:40:44;;;;;;;13.25;4.28;;;;;;;;;;5112921;27;20467;-87
2021/06/23 08:43:13;;;;;;;14.70;4.30;;;;;;;;;;5112996;27;20900;-84
2021/06/23 08:45:39;;;;;;;11.35;4.30;;;;;;;;;;5132401;27;20722;-87
2021/06/23 08:48:05;;;;;;;9.43;4.07;;;;;;;;;;5113422;27;20434;-88
2021/06/23 08:50:31;;;;;;;10.73;3.70;;;;;;;;;;5112602;27;20400;-86
2021/06/23 08:52:57;;;;;;;11.32;4.00;;;;;;;;;;5113036;27;20432;-88
2021/06/23 08:55:23;;;;;;;10.93;3.78;;;;;;;;;;5114934;27;20876;-90
2021/06/23 08:57:50;;;;;;;10.52;3.55;;;;;;;;;;5113293;27;20366;-87
2021/06/23 09:00:17;;;;;;;12.82;3.80;;;;;;;;;;5112464;27;20373;-87
2021/06/23 09:02:44;;;;;;;9.88;3.67;;;;;;;;;;5113706;27;20387;-85
2021/06/23 09:05:16;;;;;;;15.95;3.50;;;;;;;;;;5110618;27;20389;-86
2021/06/23 09:07:53;;;;;;;14.40;3.80;;;;;;;;;;5109751;27;20739;-88
2021/06/23 09:10:19;;;;;;;9.87;3.37;;;;;;;;;;5128274;27;20925;-84
2021/06/23 09:13:13;;;;;;;9.73;3.42;;;;;;;;;;5128411;27;20972;-87
2021/06/23 09:15:39;;;;;;;7.57;3.17;;;;;;;;;;5128392;27;20407;-88
2021/06/23 09:18:15;;;;;;;12.48;3.50;;;;;;;;;;5110487;27;20440;-87
2021/06/23 09:20:45;;;;;;;12.10;2.97;;;;;;;;;;5111370;27;20388;-87
2021/06/23 09:23:11;;;;;;;12.75;3.72;;;;;;;;;;5108784;27;20377;-86
2021/06/23 09:25:39;;;;;;;10.75;3.65;;;;;;;;;;5127646;27;20373;-88
2021/06/23 09:28:13;;;;;;;10.05;3.58;;;;;;;;;;5110743;27;20415;-88
2021/06/23 09:30:41;;;;;;;8.13;3.13;;;;;;;;;;5112037;27;20396;-88
2021/06/23 09:33:14;;;;;;;9.20;3.30;;;;;;;;;;5124541;27;20401;-88
2021/06/23 09:35:43;;;;;;;12.83;3.23;;;;;;;;;;5107777;27;20385;-87
2021/06/23 09:38:31;;;;;;;11.15;3.58;;;;;;;;;;5108266;27;20372;-85
2021/06/23 09:40:59;;;;;;;12.98;3.08;;;;;;;;;;5095669;27;20380;-86
2021/06/23 09:43:36;;;;;;;9.07;3.38;;;;;;;;;;5125200;27;20376;-89
2021/06/23 09:46:12;;;;;;;10.38;3.10;;;;;;;;;;5110296;27;20384;-87
2021/06/23 09:48:38;;;;;;;11.70;3.58;;;;;;;;;;5103488;27;20388;-85
2021/06/23 09:51:11;;;;;;;10.40;3.50;;;;;;;;;;5129914;27;20388;-87
2021/06/23 09:53:37;;;;;;;9.40;3.17;;;;;;;;;;5130973;27;20368;-88
2021/06/23 09:56:03;;;;;;;10.15;3.15;;;;;;;;;;5130739;27;20455;-89
2021/06/23 09:58:38;;;;;;;10.55;3.28;;;;;;;;;;5109444;27;20862;-83
2021/06/23 10:01:10;;;;;;;10.30;3.85;;;;;;;;;;5111156;27;20472;-87
2021/06/23 10:03:56;;;;;;;9.05;3.65;;;;;;;;;;5111995;27;20762;-88
2021/06/23 10:06:45;;;;;;;15.48;4.45;;;;;;;;;;5119901;27;20365;-87
2021/06/23 10:09:20;;;;;;;12.67;3.83;;;;;;;;;;5111847;27;20464;-89
2021/06/23 10:11:47;;;;;;;10.45;3.83;;;;;;;;;;5110363;27;20469;-87
2021/06/23 10:14:13;;;;;;;8.02;3.40;;;;;;;;;;5110823;27;20377;-84
2021/06/23 10:16:39;;;;;;;10.48;3.60;;;;;;;;;;5110479;27;20392;-89
2021/06/23 10:19:06;;;;;;;9.60;3.60;;;;;;;;;;5110487;27;20734;-88
2021/06/23 10:21:34;;;;;;;9.98;3.60;;;;;;;;;;5111027;27;20440;-88
2021/06/23 10:24:01;;;;;;;13.43;4.38;;;;;;;;;;5110893;27;20384;-90
2021/06/23 10:26:27;;;;;;;13.07;4.43;;;;;;;;;;5111038;27;20458;-87
2021/06/23 10:28:54;;;;;;;14.18;3.67;;;;;;;;;;5110612;27;20369;-85
2021/06/23 10:31:24;;;;;;;8.68;3.60;;;;;;;;;;5110718;27;20396;-87
2021/06/23 10:33:50;;;;;;;8.52;3.10;;;;;;;;;;5108053;28;20392;-87
2021/06/23 10:36:16;;;;;;;12.27;3.42;;;;;;;;;;5111583;28;21247;-87
2021/06/23 10:38:45;;;;;;;11.53;3.03;;;;;;;;;;5111717;28;20412;-87
2021/06/23 10:41:14;;;;;;;13.35;3.67;;;;;;;;;;5110590;27;20722;-87
2021/06/23 10:43:40;;;;;;;14.40;3.90;;;;;;;;;;5128943;28;20377;-85
2021/06/23 10:46:06;;;;;;;10.98;3.30;;;;;;;;;;5110536;28;20397;-88
2021/06/23 10:48:51;;;;;;;7.93;3.47;;;;;;;;;;5108598;27;20456;-87
2021/06/23 10:51:24;;;;;;;12.68;3.92;;;;;;;;;;5133372;27;20398;-86
2021/06/23 10:53:53;;;;;;;10.23;3.53;;;;;;;;;;5113791;27;20951;-88
2021/06/23 10:56:38;;;;;;;9.25;3.63;;;;;;;;;;5128271;27;20394;-88
2021/06/23 10:59:24;;;;;;;9.95;3.95;;;;;;;;;;5117706;27;20367;-87
2021/06/23 11:02:05;;;;;;;13.18;4.82;;;;;;;;;;5123327;27;20384;-90
2021/06/23 11:04:51;;;;;;;13.30;4.35;;;;;;;;;;5112036;27;20376;-87
2021/06/23 11:07:35;;;;;;;10.32;4.18;;;;;;;;;;5113293;27;20377;-89
2021/06/23 11:10:18;;;;;;;11.68;4.45;;;;;;;;;;5132753;27;20854;-86
2021/06/23 11:22:13;;;;;;;14.85;4.70;;;;;;;;;;5130731;27;20420;-87
2021/06/23 11:24:39;;;;;;;13.52;4.35;;;;;;;;;;5112130;27;20521;-88
2021/06/23 11:27:14;;;;;;;14.75;4.63;;;;;;;;;;5111104;27;20972;-87
2021/06/23 11:29:40;;;;;;;10.73;4.20;;;;;;;;;;5111299;27;20370;-87
2021/06/23 11:32:07;;;;;;;10.00;3.83;;;;;;;;;;5109708;27;20398;-87
2021/06/23 11:34:36;;;;;;;10.18;3.90;;;;;;;;;;5114307;27;20359;-86
2021/06/23 11:37:03;;;;;;;13.13;4.50;;;;;;;;;;5117272;27;20373;-89
2021/06/23 11:39:29;;;;;;;10.55;4.35;;;;;;;;;;5106900;27;20394;-88
2021/06/23 11:41:55;;;;;;;10.53;3.93;;;;;;;;;;5109569;27;21185;-88
2021/06/23 11:44:21;;;;;;;11.25;4.00;;;;;;;;;;5112904;27;20368;-89
2021/06/23 11:46:47;;;;;;;11.93;4.32;;;;;;;;;;5114369;27;20367;-85
2021/06/23 11:49:13;;;;;;;10.75;4.10;;;;;;;;;;5110420;27;20391;-87
2021/06/23 11:51:42;;;;;;;9.40;3.78;;;;;;;;;;5115665;27;20490;-88
2021/06/23 11:54:08;;;;;;;10.95;4.10;;;;;;;;;;5114285;27;20405;-86
2021/06/23 11:56:34;;;;;;;12.82;4.47;;;;;;;;;;5112647;27;20488;-88
2021/06/23 11:59:00;;;;;;;11.70;4.22;;;;;;;;;;5112618;27;20417;-87
2021/06/23 12:01:26;;;;;;;12.35;4.63;;;;;;;;;;5113943;27;20373;-85
2021/06/23 12:03:54;;;;;;;10.35;4.00;;;;;;;;;;5114146;27;20381;-86
2021/06/23 12:06:20;;;;;;;11.38;3.90;;;;;;;;;;5114099;27;20365;-86
2021/06/23 12:08:46;;;;;;;11.18;4.10;;;;;;;;;;5113972;27;20858;-85
2021/06/23 12:11:12;;;;;;;8.88;3.63;;;;;;;;;;5132083;27;20776;-86
2021/06/23 12:13:39;;;;;;;10.00;4.30;;;;;;;;;;5132049;27;20377;-87
2021/06/23 12:16:05;;;;;;;9.45;4.10;;;;;;;;;;5108321;27;20698;-85
2021/06/23 12:18:31;;;;;;;11.57;4.60;;;;;;;;;;5111969;27;20385;-88
2021/06/23 12:20:57;;;;;;;11.00;4.10;;;;;;;;;;5113151;27;20927;-83
2021/06/23 12:23:23;;;;;;;12.10;4.30;;;;;;;;;;5132249;27;20373;-86
2021/06/23 12:25:52;;;;;;;10.98;4.63;;;;;;;;;;5113767;27;20376;-88
2021/06/23 12:28:18;;;;;;;10.80;4.32;;;;;;;;;;5111912;27;20377;-86
2021/06/23 12:30:45;;;;;;;12.95;4.38;;;;;;;;;;5119972;27;20411;-86
2021/06/23 12:33:12;;;;;;;13.02;4.10;;;;;;;;;;5131825;27;20408;-86
2021/06/23 12:35:38;;;;;;;8.20;3.95;;;;;;;;;;5112573;27;20389;-86
2021/06/23 12:38:10;;;;;;;8.07;3.95;;;;;;;;;;5131946;27;20362;-86
2021/06/23 12:40:37;;;;;;;10.17;4.47;;;;;;;;;;5131735;27;20365;-86
2021/06/23 12:43:06;;;;;;;9.93;3.70;;;;;;;;;;5112607;27;20861;-85
2021/06/23 12:45:32;;;;;;;12.35;4.05;;;;;;;;;;5110664;27;20425;-87
2021/06/23 12:47:58;;;;;;;7.55;3.97;;;;;;;;;;5111026;27;20746;-88
2021/06/23 12:50:24;;;;;;;10.43;4.35;;;;;;;;;;5093671;27;20444;-87
2021/06/23 12:52:54;;;;;;;10.23;3.60;;;;;;;;;;5111437;27;20566;-87
2021/06/23 12:55:20;;;;;;;7.73;3.83;;;;;;;;;;5130276;27;20432;-86
2021/06/23 12:57:46;;;;;;;8.02;3.83;;;;;;;;;;5112103;27;20419;-84
2021/06/23 13:00:12;;;;;;;10.07;4.00;;;;;;;;;;5130954;27;20407;-87
2021/06/23 13:02:39;;;;;;;12.23;4.35;;;;;;;;;;5112776;27;20409;-84
2021/06/23 13:05:07;;;;;;;10.45;4.32;;;;;;;;;;5111897;27;20431;-86
2021/06/23 13:07:33;;;;;;;8.57;4.10;;;;;;;;;;5111625;27;20408;-85
2021/06/23 13:10:00;;;;;;;12.13;4.50;;;;;;;;;;5112615;27;20397;-85
2021/06/23 13:12:27;;;;;;;11.65;4.57;;;;;;;;;;5111118;27;20397;-86
2021/06/23 13:14:53;;;;;;;11.52;3.90;;;;;;;;;;5112622;27;20365;-88
2021/06/23 13:17:19;;;;;;;9.95;3.65;;;;;;;;;;5129887;27;20935;-86
2021/06/23 13:19:45;;;;;;;14.52;4.43;;;;;;;;;;5112243;27;20396;-87
2021/06/23 13:22:13;;;;;;;10.67;4.00;;;;;;;;;;5110790;27;20365;-88
2021/06/23 13:24:40;;;;;;;9.48;4.15;;;;;;;;;;5121709;27;20460;-84
2021/06/23 13:27:07;;;;;;;10.65;4.10;;;;;;;;;;5119067;27;20369;-86
2021/06/23 13:29:35;;;;;;;9.38;3.85;;;;;;;;;;5121376;27;20454;-88
2021/06/23 13:32:01;;;;;;;11.75;4.57;;;;;;;;;;5114561;27;20401;-86
2021/06/23 13:34:27;;;;;;;8.85;4.00;;;;;;;;;;5112871;27;20404;-88
2021/06/23 13:36:53;;;;;;;8.95;4.15;;;;;;;;;;5111817;27;20855;-90
2021/06/23 13:39:19;;;;;;;11.13;4.18;;;;;;;;;;5111299;27;20797;-87
2021/06/23 13:41:45;;;;;;;9.05;4.30;;;;;;;;;;5111523;27;20373;-89
2021/06/23 13:44:11;;;;;;;9.97;4.47;;;;;;;;;;5112205;27;20862;-88
2021/06/23 13:46:37;;;;;;;13.05;4.68;;;;;;;;;;5130829;27;20372;-87
2021/06/23 13:49:04;;;;;;;11.07;5.13;;;;;;;;;;5130936;27;20442;-87
2021/06/23 13:51:30;;;;;;;9.90;4.82;;;;;;;;;;5113191;27;20396;-89
2021/06/23 13:53:57;;;;;;;13.27;5.80;;;;;;;;;;5112399;27;20377;-85
2021/06/23 13:56:24;;;;;;;11.38;5.82;;;;;;;;;;5111523;27;20365;-87
2021/06/23 13:58:50;;;;;;;11.68;5.75;;;;;;;;;;5112320;27;20395;-86
2021/06/23 14:01:16;;;;;;;11.02;5.43;;;;;;;;;;5113758;27;20440;-88
2021/06/23 14:03:42;;;;;;;11.00;5.68;;;;;;;;;;5119979;27;20390;-86
2021/06/23 14:06:08;;;;;;;7.75;4.75;;;;;;;;;;5112536;27;20885;-87
2021/06/23 14:08:34;;;;;;;10.93;5.38;;;;;;;;;;5112105;27;20464;-87
2021/06/23 14:11:00;;;;;;;11.90;5.85;;;;;;;;;;5127129;27;20744;-89
2021/06/23 14:13:26;;;;;;;8.50;4.63;;;;;;;;;;5114872;27;20408;-87
2021/06/23 14:15:52;;;;;;;9.80;5.05;;;;;;;;;;5109952;27;20913;-88
2021/06/23 14:18:18;;;;;;;10.23;5.13;;;;;;;;;;5111880;27;20372;-89
2021/06/23 14:20:44;;;;;;;11.57;5.65;;;;;;;;;;5110766;27;20388;-87
2021/06/23 14:23:10;;;;;;;12.00;5.27;;;;;;;;;;5112197;28;20463;-86
2021/06/23 14:25:36;;;;;;;9.20;4.75;;;;;;;;;;5130209;27;20377;-88
2021/06/23 14:28:03;;;;;;;9.68;4.68;;;;;;;;;;5111627;28;20377;-87
2021/06/23 14:30:29;;;;;;;9.90;4.60;;;;;;;;;;5111540;27;20400;-91
2021/06/23 14:32:55;;;;;;;16.95;8.23;;;;;;;;;;5111189;27;20404;-86
2021/06/23 14:35:24;;;;;;;8.02;4.38;;;;;;;;;;5111160;28;20401;-87
2021/06/23 14:37:50;;;;;;;8.57;5.05;;;;;;;;;;5111485;28;20412;-85
2021/06/23 14:40:21;;;;;;;10.53;5.07;;;;;;;;;;5111524;28;20826;-86
2021/06/23 14:42:47;;;;;;;9.27;4.50;;;;;;;;;;5110748;27;20434;-89
2021/06/23 14:45:13;;;;;;;11.43;5.67;;;;;;;;;;5110466;28;20416;-87
2021/06/23 14:47:40;;;;;;;15.23;9.90;;;;;;;;;;5111672;28;20365;-88
2021/06/23 14:50:09;;;;;;;9.90;4.78;;;;;;;;;;5112427;28;20361;-88
2021/06/23 14:52:35;;;;;;;125.07;111.70;;;;;;;;;;5112014;28;20464;-87
2021/06/23 14:55:03;;;;;;;25.30;22.73;;;;;;;;;;5112034;28;20377;-85
2021/06/23 14:57:29;;;;;;;8.45;6.18;;;;;;;;;;5129551;27;20378;-86
2021/06/23 14:59:57;;;;;;;9.73;4.25;;;;;;;;;;5111110;28;20799;-84